Pagina principale
METAR-TAF:

METAR-TAF

Aeroporti :

Paganella, Italia

latitudine: 46-09N, longitudine: 011-02E, altezza: 2125 m

Osservazione

Il bollettino è stato emesso 35 minuti fa, alle 18:55 UTC
Vento 3 kt da direzioni variabili
Temperature 9°C
Umidità 57%
Pressione 1022 hPa
Visibilità 10 km o più
Nubi sparse ad un'altezza di 2500 ft

METAR: LIVP 231855Z VRB03KT 9999 SCT025 09/01 Q1022 RMK BKN SCT060 MON LIB VAL NIL VIS MIN 9999

Ora: 21:30 (19:30 UTC)


TAF: mancante

Osservazioni e previsioni meteorologiche di più di 4000 aeroporti (messaggi METAR e TAF).

Le stazioni disponibili sono rappresentate dai dischi gialli e rossi sulla carta.

Puntare il mouse per vedere il nome della stazione.

Clicca sopra per visualizzare le osservazioni e previsioni meteorologiche.

Per cambiare la mappa : fare clic sui pulsanti verdi con una croce nera per ingrandire, il pulsante verde con un trattino per diminuire, o sulla freccia verde per le mappe adiacenti.


METAR-TAF: